sensor_id;sensor_type;location;lat;lon;timestamp;pressure;altitude;pressure_sealevel;temperature;humidity
61908;BME280;47864;52.526;19.672;2022-08-20T00:00:32;100542.22;;;21.81;100.00
61908;BME280;47864;52.526;19.672;2022-08-20T00:02:40;100549.50;;;21.80;100.00
61908;BME280;47864;52.526;19.672;2022-08-20T00:04:43;100552.44;;;21.79;100.00
61908;BME280;47864;52.526;19.672;2022-08-20T00:06:45;100547.03;;;21.79;100.00
61908;BME280;47864;52.526;19.672;2022-08-20T00:08:47;100548.47;;;21.81;100.00
61908;BME280;47864;52.526;19.672;2022-08-20T00:10:50;100551.91;;;21.88;100.00
61908;BME280;47864;52.526;19.672;2022-08-20T00:12:56;100527.44;;;21.83;100.00
61908;BME280;47864;52.526;19.672;2022-08-20T00:14:58;100535.22;;;21.91;100.00
61908;BME280;47864;52.526;19.672;2022-08-20T00:17:01;100540.06;;;21.89;100.00
61908;BME280;47864;52.526;19.672;2022-08-20T00:19:07;100541.00;;;21.95;100.00
61908;BME280;47864;52.526;19.672;2022-08-20T00:21:12;100548.06;;;21.96;100.00
61908;BME280;47864;52.526;19.672;2022-08-20T00:23:20;100539.34;;;21.94;100.00
61908;BME280;47864;52.526;19.672;2022-08-20T00:25:23;100546.03;;;21.91;100.00
61908;BME280;47864;52.526;19.672;2022-08-20T00:27:26;100546.13;;;21.85;100.00
61908;BME280;47864;52.526;19.672;2022-08-20T00:29:28;100547.31;;;21.89;100.00
61908;BME280;47864;52.526;19.672;2022-08-20T00:31:30;100539.44;;;21.69;100.00
61908;BME280;47864;52.526;19.672;2022-08-20T00:33:32;100538.84;;;21.67;100.00
61908;BME280;47864;52.526;19.672;2022-08-20T00:35:38;100546.63;;;21.75;100.00
61908;BME280;47864;52.526;19.672;2022-08-20T00:37:41;100541.84;;;21.77;100.00
61908;BME280;47864;52.526;19.672;2022-08-20T00:39:43;100541.53;;;21.67;100.00
61908;BME280;47864;52.526;19.672;2022-08-20T00:41:45;100538.00;;;21.67;100.00
61908;BME280;47864;52.526;19.672;2022-08-20T00:44:03;100530.28;;;21.70;100.00
61908;BME280;47864;52.526;19.672;2022-08-20T00:46:10;100531.56;;;21.68;100.00
61908;BME280;47864;52.526;19.672;2022-08-20T00:48:12;100533.00;;;21.70;100.00
61908;BME280;47864;52.526;19.672;2022-08-20T00:50:18;100527.16;;;21.73;100.00
61908;BME280;47864;52.526;19.672;2022-08-20T00:52:21;100519.78;;;21.62;100.00
61908;BME280;47864;52.526;19.672;2022-08-20T00:54:27;100510.72;;;21.56;100.00
61908;BME280;47864;52.526;19.672;2022-08-20T00:56:30;100505.53;;;21.37;100.00
61908;BME280;47864;52.526;19.672;2022-08-20T00:58:35;100499.22;;;21.43;100.00
61908;BME280;47864;52.526;19.672;2022-08-20T01:00:41;100498.94;;;21.33;100.00
61908;BME280;47864;52.526;19.672;2022-08-20T01:02:44;100488.19;;;21.26;100.00
61908;BME280;47864;52.526;19.672;2022-08-20T01:04:46;100509.50;;;21.52;100.00
61908;BME280;47864;52.526;19.672;2022-08-20T01:06:49;100518.97;;;21.61;100.00
61908;BME280;47864;52.526;19.672;2022-08-20T01:08:51;100527.81;;;21.69;100.00
61908;BME280;47864;52.526;19.672;2022-08-20T01:10:54;100523.25;;;21.69;100.00
61908;BME280;47864;52.526;19.672;2022-08-20T01:12:57;100530.22;;;21.58;100.00
61908;BME280;47864;52.526;19.672;2022-08-20T01:15:01;100532.03;;;21.64;100.00
61908;BME280;47864;52.526;19.672;2022-08-20T01:17:06;100533.81;;;21.71;100.00
61908;BME280;47864;52.526;19.672;2022-08-20T01:19:10;100539.00;;;21.72;100.00
61908;BME280;47864;52.526;19.672;2022-08-20T01:21:30;100545.22;;;21.73;100.00
61908;BME280;47864;52.526;19.672;2022-08-20T01:23:53;100526.84;;;21.63;100.00
61908;BME280;47864;52.526;19.672;2022-08-20T01:28:04;100545.38;;;21.78;100.00
61908;BME280;47864;52.526;19.672;2022-08-20T01:30:07;100547.16;;;21.84;100.00
61908;BME280;47864;52.526;19.672;2022-08-20T01:32:09;100541.31;;;21.87;100.00
61908;BME280;47864;52.526;19.672;2022-08-20T01:34:14;100552.81;;;21.82;100.00
61908;BME280;47864;52.526;19.672;2022-08-20T01:36:22;100554.00;;;21.68;100.00
61908;BME280;47864;52.526;19.672;2022-08-20T01:38:24;100558.25;;;21.76;100.00
61908;BME280;47864;52.526;19.672;2022-08-20T01:42:47;100559.09;;;21.76;100.00
61908;BME280;47864;52.526;19.672;2022-08-20T01:44:59;100567.41;;;21.75;100.00
61908;BME280;47864;52.526;19.672;2022-08-20T01:47:31;100571.53;;;21.59;100.00
61908;BME280;47864;52.526;19.672;2022-08-20T01:49:40;100565.97;;;21.54;100.00
61908;BME280;47864;52.526;19.672;2022-08-20T01:51:42;100528.78;;;21.38;100.00
61908;BME280;47864;52.526;19.672;2022-08-20T01:53:51;100561.13;;;21.62;100.00
61908;BME280;47864;52.526;19.672;2022-08-20T01:55:53;100549.28;;;21.63;100.00
61908;BME280;47864;52.526;19.672;2022-08-20T01:57:55;100547.19;;;21.66;100.00
61908;BME280;47864;52.526;19.672;2022-08-20T01:59:58;100536.81;;;21.62;100.00
61908;BME280;47864;52.526;19.672;2022-08-20T02:02:00;100520.09;;;21.72;100.00
61908;BME280;47864;52.526;19.672;2022-08-20T02:04:05;100480.44;;;21.54;100.00
61908;BME280;47864;52.526;19.672;2022-08-20T02:06:16;100499.59;;;21.83;100.00
61908;BME280;47864;52.526;19.672;2022-08-20T02:08:19;100488.13;;;21.87;100.00
61908;BME280;47864;52.526;19.672;2022-08-20T02:10:22;100490.97;;;21.92;100.00
61908;BME280;47864;52.526;19.672;2022-08-20T02:12:24;100489.31;;;21.91;100.00
61908;BME280;47864;52.526;19.672;2022-08-20T02:14:26;100483.88;;;21.80;100.00
61908;BME280;47864;52.526;19.672;2022-08-20T02:16:32;100480.69;;;21.83;100.00
61908;BME280;47864;52.526;19.672;2022-08-20T02:18:34;100483.78;;;21.86;100.00
61908;BME280;47864;52.526;19.672;2022-08-20T02:20:37;100474.97;;;21.91;100.00
61908;BME280;47864;52.526;19.672;2022-08-20T02:22:52;100469.53;;;21.97;100.00
61908;BME280;47864;52.526;19.672;2022-08-20T02:24:55;100459.91;;;22.01;100.00
61908;BME280;47864;52.526;19.672;2022-08-20T02:26:57;100464.66;;;22.06;100.00
61908;BME280;47864;52.526;19.672;2022-08-20T02:29:02;100470.06;;;22.06;100.00
61908;BME280;47864;52.526;19.672;2022-08-20T02:31:10;100467.41;;;21.99;100.00
61908;BME280;47864;52.526;19.672;2022-08-20T02:33:13;100465.31;;;21.83;100.00
61908;BME280;47864;52.526;19.672;2022-08-20T02:35:16;100468.72;;;21.79;100.00
61908;BME280;47864;52.526;19.672;2022-08-20T02:37:18;100476.72;;;21.85;100.00
61908;BME280;47864;52.526;19.672;2022-08-20T02:39:20;100483.25;;;21.78;100.00
61908;BME280;47864;52.526;19.672;2022-08-20T02:41:22;100488.22;;;21.44;100.00
61908;BME280;47864;52.526;19.672;2022-08-20T02:43:24;100482.81;;;21.26;100.00
61908;BME280;47864;52.526;19.672;2022-08-20T02:45:26;100480.56;;;21.23;100.00
61908;BME280;47864;52.526;19.672;2022-08-20T02:47:29;100484.47;;;21.27;100.00
61908;BME280;47864;52.526;19.672;2022-08-20T02:49:31;100488.16;;;21.33;100.00
61908;BME280;47864;52.526;19.672;2022-08-20T02:51:33;100484.09;;;21.42;100.00
61908;BME280;47864;52.526;19.672;2022-08-20T02:53:37;100480.03;;;21.51;100.00
61908;BME280;47864;52.526;19.672;2022-08-20T02:55:39;100459.06;;;21.53;100.00
61908;BME280;47864;52.526;19.672;2022-08-20T02:57:42;100462.13;;;21.56;100.00
61908;BME280;47864;52.526;19.672;2022-08-20T02:59:45;100442.84;;;21.53;100.00
61908;BME280;47864;52.526;19.672;2022-08-20T03:01:47;100458.44;;;21.69;100.00
61908;BME280;47864;52.526;19.672;2022-08-20T03:04:01;100448.03;;;21.73;100.00
61908;BME280;47864;52.526;19.672;2022-08-20T03:06:05;100459.41;;;21.75;100.00
61908;BME280;47864;52.526;19.672;2022-08-20T03:08:09;100449.94;;;21.84;100.00
61908;BME280;47864;52.526;19.672;2022-08-20T03:10:12;100437.47;;;21.83;100.00
61908;BME280;47864;52.526;19.672;2022-08-20T03:12:14;100455.63;;;21.94;100.00
61908;BME280;47864;52.526;19.672;2022-08-20T03:14:16;100460.06;;;21.88;100.00
61908;BME280;47864;52.526;19.672;2022-08-20T03:16:18;100451.50;;;21.91;100.00
61908;BME280;47864;52.526;19.672;2022-08-20T03:18:21;100446.41;;;21.83;100.00
61908;BME280;47864;52.526;19.672;2022-08-20T03:20:24;100445.13;;;21.86;100.00
61908;BME280;47864;52.526;19.672;2022-08-20T03:22:26;100441.16;;;21.88;100.00
61908;BME280;47864;52.526;19.672;2022-08-20T03:24:28;100447.63;;;21.87;100.00
61908;BME280;47864;52.526;19.672;2022-08-20T03:26:30;100450.97;;;21.83;100.00
61908;BME280;47864;52.526;19.672;2022-08-20T03:28:32;100453.38;;;21.91;100.00
61908;BME280;47864;52.526;19.672;2022-08-20T03:32:37;100466.13;;;22.02;100.00
61908;BME280;47864;52.526;19.672;2022-08-20T03:34:39;100458.88;;;22.02;100.00
61908;BME280;47864;52.526;19.672;2022-08-20T03:36:41;100456.59;;;21.99;100.00
61908;BME280;47864;52.526;19.672;2022-08-20T03:38:43;100442.81;;;21.89;100.00
61908;BME280;47864;52.526;19.672;2022-08-20T03:40:45;100437.47;;;22.01;100.00
61908;BME280;47864;52.526;19.672;2022-08-20T03:42:48;100445.25;;;22.09;100.00
61908;BME280;47864;52.526;19.672;2022-08-20T03:44:50;100451.38;;;22.16;100.00
61908;BME280;47864;52.526;19.672;2022-08-20T03:47:02;100455.06;;;22.22;100.00
61908;BME280;47864;52.526;19.672;2022-08-20T03:49:04;100452.13;;;22.23;100.00
61908;BME280;47864;52.526;19.672;2022-08-20T03:51:06;100456.38;;;22.31;100.00
61908;BME280;47864;52.526;19.672;2022-08-20T03:53:11;100468.47;;;22.28;100.00
61908;BME280;47864;52.526;19.672;2022-08-20T03:55:15;100473.88;;;22.28;100.00
61908;BME280;47864;52.526;19.672;2022-08-20T03:57:17;100473.66;;;22.30;100.00
61908;BME280;47864;52.526;19.672;2022-08-20T03:59:19;100475.31;;;22.31;100.00
61908;BME280;47864;52.526;19.672;2022-08-20T04:01:20;100469.13;;;22.12;100.00
61908;BME280;47864;52.526;19.672;2022-08-20T04:03:42;100467.19;;;22.01;100.00
61908;BME280;47864;52.526;19.672;2022-08-20T04:05:45;100462.00;;;21.99;100.00
61908;BME280;47864;52.526;19.672;2022-08-20T04:07:47;100468.00;;;22.01;100.00
61908;BME280;47864;52.526;19.672;2022-08-20T04:09:48;100467.69;;;21.91;100.00
61908;BME280;47864;52.526;19.672;2022-08-20T04:11:50;100446.78;;;21.87;100.00
61908;BME280;47864;52.526;19.672;2022-08-20T04:13:52;100452.31;;;21.92;100.00
61908;BME280;47864;52.526;19.672;2022-08-20T04:15:55;100455.13;;;22.04;100.00
61908;BME280;47864;52.526;19.672;2022-08-20T04:17:57;100456.06;;;22.09;100.00
61908;BME280;47864;52.526;19.672;2022-08-20T04:20:02;100469.44;;;22.04;100.00
61908;BME280;47864;52.526;19.672;2022-08-20T04:22:05;100474.13;;;21.97;100.00
61908;BME280;47864;52.526;19.672;2022-08-20T04:24:07;100480.69;;;22.01;100.00
61908;BME280;47864;52.526;19.672;2022-08-20T04:26:24;100479.31;;;21.92;100.00
61908;BME280;47864;52.526;19.672;2022-08-20T04:28:26;100473.56;;;21.88;100.00
61908;BME280;47864;52.526;19.672;2022-08-20T04:30:29;100479.91;;;21.82;100.00
61908;BME280;47864;52.526;19.672;2022-08-20T04:32:30;100481.28;;;21.85;100.00
61908;BME280;47864;52.526;19.672;2022-08-20T04:34:33;100474.50;;;21.82;100.00
61908;BME280;47864;52.526;19.672;2022-08-20T04:36:35;100489.56;;;21.90;100.00
61908;BME280;47864;52.526;19.672;2022-08-20T04:38:37;100486.16;;;21.94;100.00
61908;BME280;47864;52.526;19.672;2022-08-20T04:40:50;100484.00;;;21.85;100.00
61908;BME280;47864;52.526;19.672;2022-08-20T04:42:52;100496.97;;;21.94;100.00
61908;BME280;47864;52.526;19.672;2022-08-20T04:44:54;100491.34;;;21.96;100.00
61908;BME280;47864;52.526;19.672;2022-08-20T04:46:57;100491.78;;;21.93;100.00
61908;BME280;47864;52.526;19.672;2022-08-20T04:48:59;100498.72;;;21.89;100.00
61908;BME280;47864;52.526;19.672;2022-08-20T04:51:01;100495.78;;;21.90;100.00
61908;BME280;47864;52.526;19.672;2022-08-20T04:53:06;100494.25;;;21.94;100.00
61908;BME280;47864;52.526;19.672;2022-08-20T04:55:09;100488.66;;;21.96;100.00
61908;BME280;47864;52.526;19.672;2022-08-20T04:57:11;100489.28;;;21.98;100.00
61908;BME280;47864;52.526;19.672;2022-08-20T04:59:13;100485.75;;;21.97;100.00
61908;BME280;47864;52.526;19.672;2022-08-20T05:01:16;100483.78;;;22.05;100.00
61908;BME280;47864;52.526;19.672;2022-08-20T05:05:19;100484.72;;;21.92;100.00
61908;BME280;47864;52.526;19.672;2022-08-20T05:07:21;100488.25;;;21.92;100.00
61908;BME280;47864;52.526;19.672;2022-08-20T05:09:23;100476.28;;;21.88;100.00
61908;BME280;47864;52.526;19.672;2022-08-20T05:11:26;100489.84;;;22.00;100.00
61908;BME280;47864;52.526;19.672;2022-08-20T05:13:37;100485.13;;;21.95;100.00
61908;BME280;47864;52.526;19.672;2022-08-20T05:15:39;100480.13;;;21.81;100.00
61908;BME280;47864;52.526;19.672;2022-08-20T05:17:42;100476.13;;;21.83;100.00
61908;BME280;47864;52.526;19.672;2022-08-20T05:19:44;100489.09;;;21.93;100.00
61908;BME280;47864;52.526;19.672;2022-08-20T05:21:45;100496.38;;;22.11;100.00
61908;BME280;47864;52.526;19.672;2022-08-20T05:23:47;100500.03;;;22.16;100.00
61908;BME280;47864;52.526;19.672;2022-08-20T05:25:50;100505.81;;;22.20;100.00
61908;BME280;47864;52.526;19.672;2022-08-20T05:27:56;100502.28;;;22.19;100.00
61908;BME280;47864;52.526;19.672;2022-08-20T05:30:08;100507.81;;;22.24;100.00
61908;BME280;47864;52.526;19.672;2022-08-20T05:32:14;100508.41;;;22.26;100.00
61908;BME280;47864;52.526;19.672;2022-08-20T05:34:15;100512.38;;;22.24;100.00
61908;BME280;47864;52.526;19.672;2022-08-20T05:36:17;100504.22;;;22.30;100.00
61908;BME280;47864;52.526;19.672;2022-08-20T05:38:25;100507.25;;;22.34;100.00
61908;BME280;47864;52.526;19.672;2022-08-20T05:40:27;100503.50;;;22.35;100.00
61908;BME280;47864;52.526;19.672;2022-08-20T05:42:29;100502.22;;;22.37;100.00
61908;BME280;47864;52.526;19.672;2022-08-20T05:44:31;100502.72;;;22.16;100.00
61908;BME280;47864;52.526;19.672;2022-08-20T05:46:33;100509.84;;;22.29;100.00
61908;BME280;47864;52.526;19.672;2022-08-20T05:48:34;100504.91;;;22.08;100.00
61908;BME280;47864;52.526;19.672;2022-08-20T05:50:42;100494.81;;;22.03;100.00
61908;BME280;47864;52.526;19.672;2022-08-20T05:52:44;100507.56;;;22.14;100.00
61908;BME280;47864;52.526;19.672;2022-08-20T05:54:46;100504.53;;;22.22;100.00
61908;BME280;47864;52.526;19.672;2022-08-20T05:56:48;100503.19;;;22.13;100.00
61908;BME280;47864;52.526;19.672;2022-08-20T05:58:50;100502.22;;;22.08;100.00
61908;BME280;47864;52.526;19.672;2022-08-20T06:00:53;100499.50;;;22.08;100.00
61908;BME280;47864;52.526;19.672;2022-08-20T06:02:55;100500.72;;;21.93;100.00
61908;BME280;47864;52.526;19.672;2022-08-20T06:04:57;100498.72;;;21.89;100.00
61908;BME280;47864;52.526;19.672;2022-08-20T06:07:05;100498.72;;;21.89;100.00
61908;BME280;47864;52.526;19.672;2022-08-20T06:09:08;100502.91;;;22.03;100.00
61908;BME280;47864;52.526;19.672;2022-08-20T06:11:10;100494.69;;;21.98;100.00
61908;BME280;47864;52.526;19.672;2022-08-20T06:13:12;100496.91;;;21.83;100.00
61908;BME280;47864;52.526;19.672;2022-08-20T06:15:14;100500.13;;;21.91;100.00
61908;BME280;47864;52.526;19.672;2022-08-20T06:17:17;100494.69;;;21.98;100.00
61908;BME280;47864;52.526;19.672;2022-08-20T06:19:22;100501.53;;;21.94;100.00
61908;BME280;47864;52.526;19.672;2022-08-20T06:21:27;100494.81;;;22.03;100.00
61908;BME280;47864;52.526;19.672;2022-08-20T06:23:29;100499.38;;;22.02;100.00
61908;BME280;47864;52.526;19.672;2022-08-20T06:25:51;100501.66;;;22.17;100.00
61908;BME280;47864;52.526;19.672;2022-08-20T06:27:53;100510.16;;;22.21;100.00
61908;BME280;47864;52.526;19.672;2022-08-20T06:29:55;100505.69;;;22.26;100.00
61908;BME280;47864;52.526;19.672;2022-08-20T06:31:57;100512.53;;;22.29;100.00
61908;BME280;47864;52.526;19.672;2022-08-20T06:33:58;100507.03;;;22.35;100.00
61908;BME280;47864;52.526;19.672;2022-08-20T06:36:00;100506.03;;;22.48;100.00
61908;BME280;47864;52.526;19.672;2022-08-20T06:38:03;100502.03;;;22.51;100.00
61908;BME280;47864;52.526;19.672;2022-08-20T06:40:11;100503.78;;;22.57;100.00
61908;BME280;47864;52.526;19.672;2022-08-20T06:42:13;100503.44;;;22.65;100.00
61908;BME280;47864;52.526;19.672;2022-08-20T06:44:21;100487.59;;;22.68;100.00
61908;BME280;47864;52.526;19.672;2022-08-20T06:46:23;100486.59;;;22.81;100.00
61908;BME280;47864;52.526;19.672;2022-08-20T06:48:25;100498.19;;;22.70;100.00
61908;BME280;47864;52.526;19.672;2022-08-20T06:50:31;100491.72;;;22.71;100.00
61908;BME280;47864;52.526;19.672;2022-08-20T06:52:33;100486.09;;;22.72;100.00
61908;BME280;47864;52.526;19.672;2022-08-20T06:54:53;100501.34;;;22.67;100.00
61908;BME280;47864;52.526;19.672;2022-08-20T06:56:55;100491.31;;;22.86;100.00
61908;BME280;47864;52.526;19.672;2022-08-20T06:58:58;100485.50;;;22.70;100.00
61908;BME280;47864;52.526;19.672;2022-08-20T07:01:00;100488.59;;;22.86;100.00
61908;BME280;47864;52.526;19.672;2022-08-20T07:03:10;100481.78;;;23.06;100.00
61908;BME280;47864;52.526;19.672;2022-08-20T07:05:12;100471.41;;;23.27;100.00
61908;BME280;47864;52.526;19.672;2022-08-20T07:07:18;100482.59;;;23.19;100.00
61908;BME280;47864;52.526;19.672;2022-08-20T07:09:20;100486.94;;;23.31;100.00
61908;BME280;47864;52.526;19.672;2022-08-20T07:11:22;100477.75;;;23.32;100.00
61908;BME280;47864;52.526;19.672;2022-08-20T07:13:29;100482.00;;;23.28;100.00
61908;BME280;47864;52.526;19.672;2022-08-20T07:15:31;100496.94;;;23.31;100.00
61908;BME280;47864;52.526;19.672;2022-08-20T07:17:33;100487.53;;;23.45;100.00
61908;BME280;47864;52.526;19.672;2022-08-20T07:19:35;100496.41;;;23.80;100.00
61908;BME280;47864;52.526;19.672;2022-08-20T07:21:37;100498.25;;;24.03;100.00
61908;BME280;47864;52.526;19.672;2022-08-20T07:23:39;100490.44;;;24.07;100.00
61908;BME280;47864;52.526;19.672;2022-08-20T07:25:43;100488.31;;;24.09;100.00
61908;BME280;47864;52.526;19.672;2022-08-20T07:27:45;100489.09;;;23.93;100.00
61908;BME280;47864;52.526;19.672;2022-08-20T07:29:48;100492.75;;;23.86;100.00
61908;BME280;47864;52.526;19.672;2022-08-20T07:31:51;100495.19;;;24.00;100.00
61908;BME280;47864;52.526;19.672;2022-08-20T07:33:53;100490.31;;;24.42;100.00
61908;BME280;47864;52.526;19.672;2022-08-20T07:35:56;100490.66;;;24.62;100.00
61908;BME280;47864;52.526;19.672;2022-08-20T07:37:59;100489.91;;;24.67;100.00
61908;BME280;47864;52.526;19.672;2022-08-20T07:40:01;100498.53;;;24.63;100.00
61908;BME280;47864;52.526;19.672;2022-08-20T07:42:03;100489.31;;;24.93;100.00
61908;BME280;47864;52.526;19.672;2022-08-20T07:44:05;100487.47;;;24.98;100.00
61908;BME280;47864;52.526;19.672;2022-08-20T07:46:07;100477.03;;;25.07;100.00
61908;BME280;47864;52.526;19.672;2022-08-20T07:48:12;100477.81;;;25.24;100.00
61908;BME280;47864;52.526;19.672;2022-08-20T07:50:31;100448.47;;;25.05;100.00
61908;BME280;47864;52.526;19.672;2022-08-20T07:52:33;100487.31;;;25.44;100.00
61908;BME280;47864;52.526;19.672;2022-08-20T07:54:35;100490.78;;;25.39;100.00
61908;BME280;47864;52.526;19.672;2022-08-20T07:56:37;100502.84;;;25.48;100.00
61908;BME280;47864;52.526;19.672;2022-08-20T07:58:45;100496.22;;;25.39;100.00
61908;BME280;47864;52.526;19.672;2022-08-20T08:00:47;100485.59;;;25.37;100.00
61908;BME280;47864;52.526;19.672;2022-08-20T08:02:49;100485.59;;;24.99;100.00
61908;BME280;47864;52.526;19.672;2022-08-20T08:04:51;100493.94;;;25.14;100.00
61908;BME280;47864;52.526;19.672;2022-08-20T08:06:53;100477.41;;;25.16;100.00
61908;BME280;47864;52.526;19.672;2022-08-20T08:09:05;100482.41;;;24.40;100.00
61908;BME280;47864;52.526;19.672;2022-08-20T08:11:07;100499.94;;;24.66;100.00
61908;BME280;47864;52.526;19.672;2022-08-20T08:13:09;100482.84;;;24.82;100.00
61908;BME280;47864;52.526;19.672;2022-08-20T08:15:22;100483.22;;;25.02;100.00
61908;BME280;47864;52.526;19.672;2022-08-20T08:17:25;100497.84;;;25.40;100.00
61908;BME280;47864;52.526;19.672;2022-08-20T08:19:31;100485.63;;;25.21;100.00
61908;BME280;47864;52.526;19.672;2022-08-20T08:21:34;100501.97;;;25.43;100.00
61908;BME280;47864;52.526;19.672;2022-08-20T08:23:35;100494.84;;;25.58;100.00
61908;BME280;47864;52.526;19.672;2022-08-20T08:25:41;100505.22;;;25.61;100.00
61908;BME280;47864;52.526;19.672;2022-08-20T08:27:43;100501.78;;;25.66;100.00
61908;BME280;47864;52.526;19.672;2022-08-20T08:29:45;100504.97;;;25.63;100.00
61908;BME280;47864;52.526;19.672;2022-08-20T08:31:47;100506.63;;;25.64;100.00
61908;BME280;47864;52.526;19.672;2022-08-20T08:33:49;100505.75;;;25.80;100.00
61908;BME280;47864;52.526;19.672;2022-08-20T08:35:50;100498.78;;;25.89;100.00
61908;BME280;47864;52.526;19.672;2022-08-20T08:37:52;100492.47;;;25.62;100.00
61908;BME280;47864;52.526;19.672;2022-08-20T08:39:54;100486.53;;;25.65;100.00
61908;BME280;47864;52.526;19.672;2022-08-20T08:41:57;100497.97;;;25.89;100.00
61908;BME280;47864;52.526;19.672;2022-08-20T08:44:05;100503.47;;;25.94;100.00
61908;BME280;47864;52.526;19.672;2022-08-20T08:46:09;100508.00;;;26.10;100.00
61908;BME280;47864;52.526;19.672;2022-08-20T08:48:14;100508.81;;;26.32;100.00
61908;BME280;47864;52.526;19.672;2022-08-20T08:50:30;100499.25;;;26.30;100.00
61908;BME280;47864;52.526;19.672;2022-08-20T08:52:55;100501.63;;;25.99;100.00
61908;BME280;47864;52.526;19.672;2022-08-20T08:55:02;100505.03;;;26.33;100.00
61908;BME280;47864;52.526;19.672;2022-08-20T08:57:05;100518.16;;;26.68;100.00
61908;BME280;47864;52.526;19.672;2022-08-20T08:59:09;100517.97;;;26.80;100.00
61908;BME280;47864;52.526;19.672;2022-08-20T09:01:14;100516.19;;;26.96;100.00
61908;BME280;47864;52.526;19.672;2022-08-20T09:03:37;100504.97;;;27.24;100.00
61908;BME280;47864;52.526;19.672;2022-08-20T09:05:43;100500.47;;;27.03;100.00
61908;BME280;47864;52.526;19.672;2022-08-20T09:07:49;100502.69;;;26.47;100.00
61908;BME280;47864;52.526;19.672;2022-08-20T09:09:54;100511.25;;;26.61;100.00
61908;BME280;47864;52.526;19.672;2022-08-20T09:12:09;100509.31;;;26.88;100.00
61908;BME280;47864;52.526;19.672;2022-08-20T09:14:11;100514.91;;;27.03;100.00
61908;BME280;47864;52.526;19.672;2022-08-20T09:16:13;100504.09;;;27.18;100.00
61908;BME280;47864;52.526;19.672;2022-08-20T09:18:15;100516.16;;;27.27;100.00
61908;BME280;47864;52.526;19.672;2022-08-20T09:20:17;100509.94;;;27.32;100.00
61908;BME280;47864;52.526;19.672;2022-08-20T09:22:21;100494.00;;;27.14;100.00
61908;BME280;47864;52.526;19.672;2022-08-20T09:24:23;100504.84;;;26.77;100.00
61908;BME280;47864;52.526;19.672;2022-08-20T09:26:25;100512.97;;;26.67;100.00
61908;BME280;47864;52.526;19.672;2022-08-20T09:28:29;100511.06;;;26.67;100.00
61908;BME280;47864;52.526;19.672;2022-08-20T09:30:35;100507.88;;;26.48;100.00
61908;BME280;47864;52.526;19.672;2022-08-20T09:32:38;100508.16;;;26.25;100.00
61908;BME280;47864;52.526;19.672;2022-08-20T09:34:43;100507.84;;;26.43;100.00
61908;BME280;47864;52.526;19.672;2022-08-20T09:36:45;100513.19;;;26.33;100.00
61908;BME280;47864;52.526;19.672;2022-08-20T09:38:47;100511.13;;;26.77;100.00
61908;BME280;47864;52.526;19.672;2022-08-20T09:40:49;100515.22;;;26.80;100.00
61908;BME280;47864;52.526;19.672;2022-08-20T09:42:50;100517.38;;;26.78;100.00
61908;BME280;47864;52.526;19.672;2022-08-20T09:44:53;100510.50;;;26.65;100.00
61908;BME280;47864;52.526;19.672;2022-08-20T09:46:55;100511.19;;;26.50;100.00
61908;BME280;47864;52.526;19.672;2022-08-20T09:48:57;100512.19;;;26.44;100.00
61908;BME280;47864;52.526;19.672;2022-08-20T09:50:59;100514.78;;;26.61;100.00
61908;BME280;47864;52.526;19.672;2022-08-20T09:53:03;100513.84;;;26.77;100.00
61908;BME280;47864;52.526;19.672;2022-08-20T09:57:16;100505.31;;;26.37;100.00
61908;BME280;47864;52.526;19.672;2022-08-20T09:59:19;100522.13;;;26.61;100.00
61908;BME280;47864;52.526;19.672;2022-08-20T10:01:21;100517.00;;;26.64;100.00
61908;BME280;47864;52.526;19.672;2022-08-20T10:03:23;100516.13;;;26.27;100.00
61908;BME280;47864;52.526;19.672;2022-08-20T10:05:26;100518.38;;;26.35;100.00
61908;BME280;47864;52.526;19.672;2022-08-20T10:07:27;100518.31;;;26.30;100.00
61908;BME280;47864;52.526;19.672;2022-08-20T10:09:29;100516.53;;;26.19;100.00
61908;BME280;47864;52.526;19.672;2022-08-20T10:11:31;100516.13;;;25.83;100.00
61908;BME280;47864;52.526;19.672;2022-08-20T10:13:33;100518.31;;;26.08;100.00
61908;BME280;47864;52.526;19.672;2022-08-20T10:15:35;100518.09;;;26.36;100.00
61908;BME280;47864;52.526;19.672;2022-08-20T10:17:41;100520.41;;;26.49;100.00
61908;BME280;47864;52.526;19.672;2022-08-20T10:19:43;100519.47;;;26.39;100.00
61908;BME280;47864;52.526;19.672;2022-08-20T10:21:45;100521.94;;;26.67;100.00
61908;BME280;47864;52.526;19.672;2022-08-20T10:23:47;100517.81;;;26.92;100.00
61908;BME280;47864;52.526;19.672;2022-08-20T10:25:49;100525.78;;;26.71;98.40
61908;BME280;47864;52.526;19.672;2022-08-20T10:27:50;100517.34;;;26.73;97.89
61908;BME280;47864;52.526;19.672;2022-08-20T10:29:53;100510.03;;;27.05;100.00
61908;BME280;47864;52.526;19.672;2022-08-20T10:31:55;100510.44;;;27.29;100.00
61908;BME280;47864;52.526;19.672;2022-08-20T10:33:57;100515.28;;;27.17;99.18
61908;BME280;47864;52.526;19.672;2022-08-20T10:36:11;100508.84;;;27.33;95.45
61908;BME280;47864;52.526;19.672;2022-08-20T10:38:13;100516.72;;;27.35;96.95
61908;BME280;47864;52.526;19.672;2022-08-20T10:40:15;100514.00;;;27.30;94.55
61908;BME280;47864;52.526;19.672;2022-08-20T10:42:17;100509.69;;;27.39;96.59